Buoy 46612

sailwx.info

Track history (hours):
 
Tides and Currents Weather Stations Pressure Air Temp Water Temp Dewpoint Dewpoint Depression Visibility Wind Speed Wind Dir Waves Ship Positions

Drifting buoy 46612

Last reported at 2016-Feb-10 15:00 UTC. Time now 2016-Feb-10 17:46 UTC.
Position N 37°15' W 132°58'.

Water temperature 15.2 ° C

Date/timePositionNaut miles runAvg speedWind from/ knotsBaromVisibWave heightAir tempDewpointWater temp
2016-Feb-10 15:00N 37°15' W 132°58'1 0.9 15.2
2016-Feb-10 14:00N 37°16' W 132°57'2 0.7 15.2
2016-Feb-10 11:00N 37°18' W 132°59'3 0.5 15.2
2016-Feb-10 05:00N 37°15' W 132°60'0 0.4 15.2
2016-Feb-10 04:00N 37°14' W 132°60'1 0.9 15.2
2016-Feb-10 03:00N 37°14' W 132°58'0 0.4 15.3
2016-Feb-10 02:00N 37°14' W 132°58'0 0.1 15.3
2016-Feb-09 21:00N 37°14' W 132°57'1 0.5 15.2
2016-Feb-09 20:00N 37°14' W 132°57'1 0.3 15.2
2016-Feb-09 18:00N 37°13' W 132°58'1 1.0 15.2
2016-Feb-09 17:00N 37°13' W 132°57'0 0.1 15.2
2016-Feb-09 15:00N 37°13' W 132°57'0 0.1 15.2
2016-Feb-09 14:00N 37°13' W 132°57'0 0.3 15.2
2016-Feb-09 13:00N 37°12' W 132°57'0 0.4 15.2
2016-Feb-09 12:00N 37°12' W 132°57'0 0.4 15.2
2016-Feb-09 11:00N 37°12' W 132°57'2 0.5 15.2
2016-Feb-09 07:00N 37°10' W 132°57'0 0.4 15.2
2016-Feb-09 06:00N 37°09' W 132°57'0 0.1 15.2
2016-Feb-09 05:00N 37°09' W 132°57'1 0.7 15.2
2016-Feb-09 04:00N 37°09' W 132°57'1 0.8 15.2
2016-Feb-09 03:00N 37°08' W 132°57'0 0.5 15.2
2016-Feb-09 02:00N 37°08' W 132°58'0 0.5 15.2
2016-Feb-09 01:00N 37°08' W 132°58'0 0.3 15.3
2016-Feb-09 00:00N 37°08' W 132°59'1 0.7 15.2
2016-Feb-08 23:00N 37°08' W 132°60'0 0.0 15.2
2016-Feb-08 22:00N 37°08' W 132°60'2 1.5 15.2
2016-Feb-08 21:00N 37°07' W 133°01'2 0.5 15.2
2016-Feb-08 17:00N 37°05' W 133°03'1 0.2 15.1
2016-Feb-08 14:00N 37°05' W 133°03'0 0.3 15.1
2016-Feb-08 13:00N 37°05' W 133°03'2 0.2 15.1
2016-Feb-08 05:00N 37°06' W 133°05'0 0.3 15.1
2016-Feb-08 04:00N 37°06' W 133°05'0 0.1 15.1
2016-Feb-08 03:00N 37°06' W 133°05'1 0.8 15.2
2016-Feb-08 02:00N 37°06' W 133°06'1 0.9 15.2
2016-Feb-08 01:00N 37°07' W 133°07'1 0.7 15.2
2016-Feb-07 23:00N 37°06' W 133°09'0 0.0 15.2
2016-Feb-07 22:00N 37°06' W 133°09'0 0.2 15.2
2016-Feb-07 21:00N 37°07' W 133°09'0 0.1 15.2
2016-Feb-07 18:00N 37°06' W 133°09'0 0.1 15.1
2016-Feb-07 15:00N 37°06' W 133°09'0 0.4 15.1
2016-Feb-07 14:00N 37°06' W 133°08'1 0.7 15.1
2016-Feb-07 13:00N 37°07' W 133°08'0 0.0 15.1
2016-Feb-07 12:00N 37°07' W 133°08'3 0.6 15.1
2016-Feb-07 07:00N 37°08' W 133°11'0 0.2 15.1
2016-Feb-07 06:00N 37°08' W 133°11'0 0.0 15.1
2016-Feb-07 05:00N 37°08' W 133°11'1 0.8 15.1
2016-Feb-07 04:00N 37°07' W 133°11'0 0.3 15.1
2016-Feb-07 03:00N 37°07' W 133°11'0 0.3 15.2
2016-Feb-07 02:00N 37°07' W 133°11'0 0.2 15.2
2016-Feb-07 01:00N 37°07' W 133°11'0 0.4 15.2
2016-Feb-07 00:00N 37°07' W 133°10'0 0.3 15.2
2016-Feb-06 23:00N 37°07' W 133°10'0 0.0 15.2
2016-Feb-06 22:00N 37°07' W 133°10'1 0.4 15.2
2016-Feb-06 18:00N 37°08' W 133°09'0 0.0 15.0
2016-Feb-06 17:00N 37°08' W 133°09'0 0.0 15.0
2016-Feb-06 16:00N 37°08' W 133°09'1 0.6 15.0
2016-Feb-06 15:00N 37°08' W 133°09'0 0.0 15.0
2016-Feb-06 14:00N 37°08' W 133°09'0 0.0 15.0
2016-Feb-06 13:00N 37°08' W 133°09'0 0.4 15.0
2016-Feb-06 12:00N 37°08' W 133°10'3 0.6 15.0
2016-Feb-06 07:00N 37°05' W 133°11'3 0.7 15.0
2016-Feb-06 03:00N 37°03' W 133°08'2 0.5 15.1
2016-Feb-06 00:00N 37°02' W 133°07'1 1.3 15.2
2016-Feb-05 23:00N 37°01' W 133°06'0 0.0 15.2
2016-Feb-05 22:00N 37°01' W 133°06'1 0.3 15.2
2016-Feb-05 20:00N 37°01' W 133°06'2 0.8 15.0
2016-Feb-05 18:00N 36°59' W 133°07'0 0.0 14.9
2016-Feb-05 17:00N 36°59' W 133°07'3 3.2 15.0
2016-Feb-05 16:00N 36°57' W 133°09'0 0.0 14.9
2016-Feb-05 15:00N 36°57' W 133°09'15 1.1 14.9
2016-Feb-05 02:00N 36°47' W 133°23'7 3.3 14.8
2016-Feb-05 00:00N 36°45' W 133°31'0 0.0 14.8
2016-Feb-04 21:00N 36°45' W 133°31'4 1.1 14.8
2016-Feb-04 17:00N 36°44' W 133°36'1 0.5 15.0
2016-Feb-04 16:00N 36°44' W 133°37'0 0.2 14.9
2016-Feb-04 14:00N 36°44' W 133°37'1 1.0 14.9
2016-Feb-04 13:00N 36°43' W 133°38'1 1.4 14.9
2016-Feb-04 12:00N 36°43' W 133°40'2 0.5 14.9
2016-Feb-04 07:00N 36°43' W 133°43'2 0.4 15.0
2016-Feb-04 01:00N 36°44' W 133°45'2 0.9 14.9
2016-Feb-03 23:00N 36°45' W 133°48'1 0.7 15.0
2016-Feb-03 21:00N 36°46' W 133°49'4 0.5 15.0
2016-Feb-03 12:00N 36°49' W 133°52'4 0.6 15.0
2016-Feb-03 06:00N 36°53' W 133°53'6 0.6 15.1
2016-Feb-02 20:00N 36°53' W 134°00'1 0.3 14.8
2016-Feb-02 18:00N 36°53' W 134°01'1 1.2 14.8
2016-Feb-02 17:00N 36°53' W 133°60'1 0.3 14.8
2016-Feb-02 15:00N 36°53' W 133°59'1 0.5 14.8
2016-Feb-02 13:00N 36°54' W 133°59'1 0.3 14.8
2016-Feb-02 09:00N 36°55' W 133°60'1 0.6 14.8
2016-Feb-02 07:00N 36°55' W 134°01'1 0.2 14.9
2016-Feb-02 04:00N 36°55' W 134°02'1 0.1 14.9
2016-Feb-01 20:00N 36°55' W 134°03'1 0.7 14.9
2016-Feb-01 19:00N 36°56' W 134°02'2 0.8 14.9
2016-Feb-01 16:00N 36°58' W 134°03'0 0.4 14.9
2016-Feb-01 15:00N 36°58' W 134°02'1 1.3 14.9
2016-Feb-01 14:00N 36°59' W 134°04'2 0.8 15.0
2016-Feb-01 11:00N 36°59' W 134°07'3 0.6 15.0
2016-Feb-01 06:00N 36°59' W 134°10'1 0.6 15.0
2016-Feb-01 05:00N 36°59' W 134°10'0 0.2 15.1
2016-Feb-01 03:00N 36°59' W 134°10'0 0.0 15.1
2016-Feb-01 01:00N 36°59' W 134°10'1 0.3 15.1
2016-Jan-31 23:00N 36°59' W 134°09'0 0.0 15.1
2016-Jan-31 21:00N 36°59' W 134°09'1 1.2 15.0
2016-Jan-31 20:00N 37°00' W 134°09'1 0.6 15.0
2016-Jan-31 18:00N 37°01' W 134°10'1 1.2 15.0
2016-Jan-31 17:00N 37°02' W 134°11'0 0.1 15.0
2016-Jan-31 15:00N 37°02' W 134°11'   15.0
Track history (hours):
 
Tides and Currents Weather Stations Pressure Air Temp Water Temp Dewpoint Dewpoint Depression Visibility Wind Speed Wind Dir Waves Ship Positions

Drifting buoy 46612

Last reported at 2016-Feb-10 15:00 UTC. Time now 2016-Feb-10 17:46 UTC.
Position N 37°15' W 132°58'.

Water temperature 15.2 ° C

Date/timePositionNaut miles runAvg speedWind from/ knotsBaromVisibWave heightAir tempDewpointWater temp
2016-Feb-10 15:00N 37°15' W 132°58'1 0.9 15.2
2016-Feb-10 14:00N 37°16' W 132°57'2 0.7 15.2
2016-Feb-10 11:00N 37°18' W 132°59'3 0.5 15.2
2016-Feb-10 05:00N 37°15' W 132°60'0 0.4 15.2
2016-Feb-10 04:00N 37°14' W 132°60'1 0.9 15.2
2016-Feb-10 03:00N 37°14' W 132°58'0 0.4 15.3
2016-Feb-10 02:00N 37°14' W 132°58'0 0.1 15.3
2016-Feb-09 21:00N 37°14' W 132°57'1 0.5 15.2
2016-Feb-09 20:00N 37°14' W 132°57'1 0.3 15.2
2016-Feb-09 18:00N 37°13' W 132°58'1 1.0 15.2
2016-Feb-09 17:00N 37°13' W 132°57'0 0.1 15.2
2016-Feb-09 15:00N 37°13' W 132°57'0 0.1 15.2
2016-Feb-09 14:00N 37°13' W 132°57'0 0.3 15.2
2016-Feb-09 13:00N 37°12' W 132°57'0 0.4 15.2
2016-Feb-09 12:00N 37°12' W 132°57'0 0.4 15.2
2016-Feb-09 11:00N 37°12' W 132°57'2 0.5 15.2
2016-Feb-09 07:00N 37°10' W 132°57'0 0.4 15.2
2016-Feb-09 06:00N 37°09' W 132°57'0 0.1 15.2
2016-Feb-09 05:00N 37°09' W 132°57'1 0.7 15.2
2016-Feb-09 04:00N 37°09' W 132°57'1 0.8 15.2
2016-Feb-09 03:00N 37°08' W 132°57'0 0.5 15.2
2016-Feb-09 02:00N 37°08' W 132°58'0 0.5 15.2
2016-Feb-09 01:00N 37°08' W 132°58'0 0.3 15.3
2016-Feb-09 00:00N 37°08' W 132°59'1 0.7 15.2
2016-Feb-08 23:00N 37°08' W 132°60'0 0.0 15.2
2016-Feb-08 22:00N 37°08' W 132°60'2 1.5 15.2
2016-Feb-08 21:00N 37°07' W 133°01'2 0.5 15.2
2016-Feb-08 17:00N 37°05' W 133°03'1 0.2 15.1
2016-Feb-08 14:00N 37°05' W 133°03'0 0.3 15.1
2016-Feb-08 13:00N 37°05' W 133°03'2 0.2 15.1
2016-Feb-08 05:00N 37°06' W 133°05'0 0.3 15.1
2016-Feb-08 04:00N 37°06' W 133°05'0 0.1 15.1
2016-Feb-08 03:00N 37°06' W 133°05'1 0.8 15.2
2016-Feb-08 02:00N 37°06' W 133°06'1 0.9 15.2
2016-Feb-08 01:00N 37°07' W 133°07'1 0.7 15.2
2016-Feb-07 23:00N 37°06' W 133°09'0 0.0 15.2
2016-Feb-07 22:00N 37°06' W 133°09'0 0.2 15.2
2016-Feb-07 21:00N 37°07' W 133°09'0 0.1 15.2
2016-Feb-07 18:00N 37°06' W 133°09'0 0.1 15.1
2016-Feb-07 15:00N 37°06' W 133°09'0 0.4 15.1
2016-Feb-07 14:00N 37°06' W 133°08'1 0.7 15.1
2016-Feb-07 13:00N 37°07' W 133°08'0 0.0 15.1
2016-Feb-07 12:00N 37°07' W 133°08'3 0.6 15.1
2016-Feb-07 07:00N 37°08' W 133°11'0 0.2 15.1
2016-Feb-07 06:00N 37°08' W 133°11'0 0.0 15.1
2016-Feb-07 05:00N 37°08' W 133°11'1 0.8 15.1
2016-Feb-07 04:00N 37°07' W 133°11'0 0.3 15.1
2016-Feb-07 03:00N 37°07' W 133°11'0 0.3 15.2
2016-Feb-07 02:00N 37°07' W 133°11'0 0.2 15.2
2016-Feb-07 01:00N 37°07' W 133°11'0 0.4 15.2
2016-Feb-07 00:00N 37°07' W 133°10'0 0.3 15.2
2016-Feb-06 23:00N 37°07' W 133°10'0 0.0 15.2
2016-Feb-06 22:00N 37°07' W 133°10'1 0.4 15.2
2016-Feb-06 18:00N 37°08' W 133°09'0 0.0 15.0
2016-Feb-06 17:00N 37°08' W 133°09'0 0.0 15.0
2016-Feb-06 16:00N 37°08' W 133°09'1 0.6 15.0
2016-Feb-06 15:00N 37°08' W 133°09'0 0.0 15.0
2016-Feb-06 14:00N 37°08' W 133°09'0 0.0 15.0
2016-Feb-06 13:00N 37°08' W 133°09'0 0.4 15.0
2016-Feb-06 12:00N 37°08' W 133°10'3 0.6 15.0
2016-Feb-06 07:00N 37°05' W 133°11'3 0.7 15.0
2016-Feb-06 03:00N 37°03' W 133°08'2 0.5 15.1
2016-Feb-06 00:00N 37°02' W 133°07'1 1.3 15.2
2016-Feb-05 23:00N 37°01' W 133°06'0 0.0 15.2
2016-Feb-05 22:00N 37°01' W 133°06'1 0.3 15.2
2016-Feb-05 20:00N 37°01' W 133°06'2 0.8 15.0
2016-Feb-05 18:00N 36°59' W 133°07'0 0.0 14.9
2016-Feb-05 17:00N 36°59' W 133°07'3 3.2 15.0
2016-Feb-05 16:00N 36°57' W 133°09'0 0.0 14.9
2016-Feb-05 15:00N 36°57' W 133°09'15 1.1 14.9
2016-Feb-05 02:00N 36°47' W 133°23'7 3.3 14.8
2016-Feb-05 00:00N 36°45' W 133°31'0 0.0 14.8
2016-Feb-04 21:00N 36°45' W 133°31'4 1.1 14.8
2016-Feb-04 17:00N 36°44' W 133°36'1 0.5 15.0
2016-Feb-04 16:00N 36°44' W 133°37'0 0.2 14.9
2016-Feb-04 14:00N 36°44' W 133°37'1 1.0 14.9
2016-Feb-04 13:00N 36°43' W 133°38'1 1.4 14.9
2016-Feb-04 12:00N 36°43' W 133°40'2 0.5 14.9
2016-Feb-04 07:00N 36°43' W 133°43'2 0.4 15.0
2016-Feb-04 01:00N 36°44' W 133°45'2 0.9 14.9
2016-Feb-03 23:00N 36°45' W 133°48'1 0.7 15.0
2016-Feb-03 21:00N 36°46' W 133°49'4 0.5 15.0
2016-Feb-03 12:00N 36°49' W 133°52'4 0.6 15.0
2016-Feb-03 06:00N 36°53' W 133°53'6 0.6 15.1
2016-Feb-02 20:00N 36°53' W 134°00'1 0.3 14.8
2016-Feb-02 18:00N 36°53' W 134°01'1 1.2 14.8
2016-Feb-02 17:00N 36°53' W 133°60'1 0.3 14.8
2016-Feb-02 15:00N 36°53' W 133°59'1 0.5 14.8
2016-Feb-02 13:00N 36°54' W 133°59'1 0.3 14.8
2016-Feb-02 09:00N 36°55' W 133°60'1 0.6 14.8
2016-Feb-02 07:00N 36°55' W 134°01'1 0.2 14.9
2016-Feb-02 04:00N 36°55' W 134°02'1 0.1 14.9
2016-Feb-01 20:00N 36°55' W 134°03'1 0.7 14.9
2016-Feb-01 19:00N 36°56' W 134°02'2 0.8 14.9
2016-Feb-01 16:00N 36°58' W 134°03'0 0.4 14.9
2016-Feb-01 15:00N 36°58' W 134°02'1 1.3 14.9
2016-Feb-01 14:00N 36°59' W 134°04'2 0.8 15.0
2016-Feb-01 11:00N 36°59' W 134°07'3 0.6 15.0
2016-Feb-01 06:00N 36°59' W 134°10'1 0.6 15.0
2016-Feb-01 05:00N 36°59' W 134°10'0 0.2 15.1
2016-Feb-01 03:00N 36°59' W 134°10'0 0.0 15.1
2016-Feb-01 01:00N 36°59' W 134°10'1 0.3 15.1
2016-Jan-31 23:00N 36°59' W 134°09'0 0.0 15.1
2016-Jan-31 21:00N 36°59' W 134°09'1 1.2 15.0
2016-Jan-31 20:00N 37°00' W 134°09'1 0.6 15.0
2016-Jan-31 18:00N 37°01' W 134°10'1 1.2 15.0
2016-Jan-31 17:00N 37°02' W 134°11'0 0.1 15.0
2016-Jan-31 15:00N 37°02' W 134°11'   15.0

Dump ship's entire track history